Saturday, November 22, 2014
14:08 UTC
  |  Log In   |  Register Free
Airport Search:

Lenawee County Airport
(KADG)

Lenawee County Airport Diagram
No Airport Diagram Available

FAA data valid effective November 13, 2014 - January 08, 2015 (unless otherwise noted).

 
 
 
 
 
 
 
 
 
 
 
 
 
 

Current Aviation Weather for Lenawee County Airport (KADG)

The most recent METAR observation for KADG was updated at: 1310
METAR Summary (Translated METAR)
KADG
221253Z AUTO 23009KT 4SM -FZRA BR OVC007 00/M01 A3014 RMK AO2 SLP218 P0000 I1004 T00001011
KUSE
221255Z AUTO 19009KT 5SM BR OVC029 00/00 A3014 RMK AO2
(15.6 nm SW from KADG)
KDUH
221254Z AUTO 20006KT 4SM -DZ SCT022 OVC035 01/00 A3015 RMK AO2
(20.5 nm SE from KADG)
TAF
No TAF information found within 50 nm of KADG
  Airport Weather Conditions for KADG

 Current Weather at ADG
32° F
Light Freezing Rain Fog/Mist
Southwest winds at 10.4 mph
ADG NOAA Radar

Pressure: 30.14 in
Humidity: 92%
Wind: Southwest at 10.4 MPH (9 KT)
Dew Point: 30.0°F
Visibility: 4.00 mi


Airport Weather Forecast for KADG

Translated METAR and TAF for KADG
Translated METAR for KADG (1403 UTC 22 November 2014)
found at http://aviationweather.gov/adds/metars/
 
METAR text: KADG 221353Z AUTO 23008KT 3SM BR OVC005 00/M01 A3013 RMK AO2 FZRAE06 CIG 004V009 SLP215 P0000 I1000 T00001006
Conditions at: KADG (ADRIAN , MI, US) observed 1353 UTC 22 November 2014
Temperature: 0.0°C (32°F)
Dewpoint: -0.6°C (31°F) [RH = 96%]
Pressure (altimeter): 30.13 inches Hg (1020.4 mb)
[Sea-level pressure: 1021.5 mb]
Winds: from the SW (230 degrees) at 9 MPH (8 knots; 4.2 m/s)
Visibility: 3 miles (5 km)
Ceiling: 500 feet AGL
Clouds: overcast cloud deck at 500 feet AGL
Weather: BR  (mist)
Translated TAF for KADG

There is no translated TAF available for this airport

Find All Airport Services Find A Hotel Find A Rental Car Find A Golf Course Find A Restaurant $100 Hamburger



FBO's on the Field
FBO Company Facility Photos Services Transportation Aviation Fuel Prices: Prices include tax
Catering Weather Repair Courtesy Rental Type 100LL JetA JetA+ MOGAS 8087
 
Lenawee County Airport

This FBO has not yet been rated
FS:Avfuel
Last Updated: Nov-19
Login to update fuel prices
SS:
Contact Lenawee County AirportMore FBO Information
 
Add another FBO Facility Photos Catering Weather Repair Courtesy Rental Type 100LL JetA JetA+ MOGAS 8087
Services Transportation Aviation Fuel Prices: Prices include tax


model-print
model-print
model-print
model-print